sensor_id;sensor_type;location;lat;lon;timestamp;temperature;humidity
22006;DHT22;11167;46.988;15.470;2022-12-18T00:00:40;3.30;90.70
22006;DHT22;11167;46.988;15.470;2022-12-18T00:02:42;3.30;90.70
22006;DHT22;11167;46.988;15.470;2022-12-18T00:04:43;3.30;90.70
22006;DHT22;11167;46.988;15.470;2022-12-18T00:06:44;3.30;90.80
22006;DHT22;11167;46.988;15.470;2022-12-18T00:08:45;3.30;90.70
22006;DHT22;11167;46.988;15.470;2022-12-18T00:10:47;3.30;90.80
22006;DHT22;11167;46.988;15.470;2022-12-18T00:12:48;3.30;90.70
22006;DHT22;11167;46.988;15.470;2022-12-18T00:14:49;3.20;90.70
22006;DHT22;11167;46.988;15.470;2022-12-18T00:16:50;3.20;90.70
22006;DHT22;11167;46.988;15.470;2022-12-18T00:18:53;3.30;90.70
22006;DHT22;11167;46.988;15.470;2022-12-18T00:21:03;3.20;90.70
22006;DHT22;11167;46.988;15.470;2022-12-18T00:23:05;3.20;90.70
22006;DHT22;11167;46.988;15.470;2022-12-18T00:25:07;3.20;90.70
22006;DHT22;11167;46.988;15.470;2022-12-18T00:27:08;3.20;90.70
22006;DHT22;11167;46.988;15.470;2022-12-18T00:29:12;3.20;90.70
22006;DHT22;11167;46.988;15.470;2022-12-18T00:31:17;3.20;90.80
22006;DHT22;11167;46.988;15.470;2022-12-18T00:33:19;3.20;90.70
22006;DHT22;11167;46.988;15.470;2022-12-18T00:35:20;3.20;90.80
22006;DHT22;11167;46.988;15.470;2022-12-18T00:37:22;3.20;90.70
22006;DHT22;11167;46.988;15.470;2022-12-18T00:39:23;3.20;90.80
22006;DHT22;11167;46.988;15.470;2022-12-18T00:41:24;3.20;90.80
22006;DHT22;11167;46.988;15.470;2022-12-18T00:43:44;3.10;90.70
22006;DHT22;11167;46.988;15.470;2022-12-18T00:45:45;3.20;90.80
22006;DHT22;11167;46.988;15.470;2022-12-18T00:47:46;3.10;90.70
22006;DHT22;11167;46.988;15.470;2022-12-18T00:49:48;3.10;90.80
22006;DHT22;11167;46.988;15.470;2022-12-18T00:51:49;3.10;90.70
22006;DHT22;11167;46.988;15.470;2022-12-18T00:53:50;3.10;90.70
22006;DHT22;11167;46.988;15.470;2022-12-18T00:55:52;3.10;90.70
22006;DHT22;11167;46.988;15.470;2022-12-18T00:57:53;3.10;90.70
22006;DHT22;11167;46.988;15.470;2022-12-18T00:59:54;3.10;90.70
22006;DHT22;11167;46.988;15.470;2022-12-18T01:01:55;3.10;90.70
22006;DHT22;11167;46.988;15.470;2022-12-18T01:03:56;3.10;90.80
22006;DHT22;11167;46.988;15.470;2022-12-18T01:05:57;3.10;90.80
22006;DHT22;11167;46.988;15.470;2022-12-18T01:07:59;3.10;90.70
22006;DHT22;11167;46.988;15.470;2022-12-18T01:10:00;3.10;90.80
22006;DHT22;11167;46.988;15.470;2022-12-18T01:12:01;3.10;90.80
22006;DHT22;11167;46.988;15.470;2022-12-18T01:14:03;3.10;90.80
22006;DHT22;11167;46.988;15.470;2022-12-18T01:16:04;3.10;90.80
22006;DHT22;11167;46.988;15.470;2022-12-18T01:18:06;3.10;90.80
22006;DHT22;11167;46.988;15.470;2022-12-18T01:20:08;3.10;90.80
22006;DHT22;11167;46.988;15.470;2022-12-18T01:22:10;3.10;90.80
22006;DHT22;11167;46.988;15.470;2022-12-18T01:24:11;3.00;90.80
22006;DHT22;11167;46.988;15.470;2022-12-18T01:26:14;3.10;90.80
22006;DHT22;11167;46.988;15.470;2022-12-18T01:28:15;3.00;90.80
22006;DHT22;11167;46.988;15.470;2022-12-18T01:30:17;3.00;90.80
22006;DHT22;11167;46.988;15.470;2022-12-18T01:32:18;3.00;90.80
22006;DHT22;11167;46.988;15.470;2022-12-18T01:34:19;3.00;90.80
22006;DHT22;11167;46.988;15.470;2022-12-18T01:36:26;3.00;90.80
22006;DHT22;11167;46.988;15.470;2022-12-18T01:38:28;3.00;90.80
22006;DHT22;11167;46.988;15.470;2022-12-18T01:40:30;3.00;90.80
22006;DHT22;11167;46.988;15.470;2022-12-18T01:42:31;3.00;90.80
22006;DHT22;11167;46.988;15.470;2022-12-18T01:46:54;3.00;90.80
22006;DHT22;11167;46.988;15.470;2022-12-18T01:48:57;3.00;90.80
22006;DHT22;11167;46.988;15.470;2022-12-18T01:51:00;3.00;90.80
22006;DHT22;11167;46.988;15.470;2022-12-18T01:53:07;2.90;90.80
22006;DHT22;11167;46.988;15.470;2022-12-18T01:55:11;2.90;91.20
22006;DHT22;11167;46.988;15.470;2022-12-18T01:57:13;2.90;90.80
22006;DHT22;11167;46.988;15.470;2022-12-18T01:59:14;2.90;91.20
22006;DHT22;11167;46.988;15.470;2022-12-18T02:01:16;3.00;90.90
22006;DHT22;11167;46.988;15.470;2022-12-18T02:03:18;2.90;90.80
22006;DHT22;11167;46.988;15.470;2022-12-18T02:05:34;3.00;90.90
22006;DHT22;11167;46.988;15.470;2022-12-18T02:07:45;2.90;90.90
22006;DHT22;11167;46.988;15.470;2022-12-18T02:09:48;2.90;90.90
22006;DHT22;11167;46.988;15.470;2022-12-18T02:11:53;2.90;90.90
22006;DHT22;11167;46.988;15.470;2022-12-18T02:14:23;2.90;90.90
22006;DHT22;11167;46.988;15.470;2022-12-18T02:18:44;2.90;91.00
22006;DHT22;11167;46.988;15.470;2022-12-18T02:27:49;2.80;90.90
22006;DHT22;11167;46.988;15.470;2022-12-18T02:29:51;2.80;91.00
22006;DHT22;11167;46.988;15.470;2022-12-18T02:31:57;2.80;91.10
22006;DHT22;11167;46.988;15.470;2022-12-18T02:34:01;2.80;91.00
22006;DHT22;11167;46.988;15.470;2022-12-18T02:36:04;2.80;91.00
22006;DHT22;11167;46.988;15.470;2022-12-18T02:38:06;2.80;91.00
22006;DHT22;11167;46.988;15.470;2022-12-18T02:40:09;2.80;91.00
22006;DHT22;11167;46.988;15.470;2022-12-18T02:42:12;2.80;91.00
22006;DHT22;11167;46.988;15.470;2022-12-18T02:44:14;2.80;91.10
22006;DHT22;11167;46.988;15.470;2022-12-18T02:46:33;2.80;91.00
22006;DHT22;11167;46.988;15.470;2022-12-18T02:48:57;2.80;91.00
22006;DHT22;11167;46.988;15.470;2022-12-18T02:51:18;2.70;91.00
22006;DHT22;11167;46.988;15.470;2022-12-18T02:56:11;2.80;91.00
22006;DHT22;11167;46.988;15.470;2022-12-18T02:58:16;2.70;91.00
22006;DHT22;11167;46.988;15.470;2022-12-18T03:00:30;2.70;91.00
22006;DHT22;11167;46.988;15.470;2022-12-18T03:04:52;2.70;91.00
22006;DHT22;11167;46.988;15.470;2022-12-18T03:06:57;2.70;91.10
22006;DHT22;11167;46.988;15.470;2022-12-18T03:09:13;2.70;91.10
22006;DHT22;11167;46.988;15.470;2022-12-18T03:11:12;2.70;91.10
22006;DHT22;11167;46.988;15.470;2022-12-18T03:13:18;2.70;91.10
22006;DHT22;11167;46.988;15.470;2022-12-18T03:15:25;2.70;91.10
22006;DHT22;11167;46.988;15.470;2022-12-18T03:17:28;2.70;91.10
22006;DHT22;11167;46.988;15.470;2022-12-18T03:19:32;2.70;91.10
22006;DHT22;11167;46.988;15.470;2022-12-18T03:21:49;2.70;91.10
22006;DHT22;11167;46.988;15.470;2022-12-18T03:23:51;2.70;91.10
22006;DHT22;11167;46.988;15.470;2022-12-18T03:25:56;2.70;91.10
22006;DHT22;11167;46.988;15.470;2022-12-18T03:28:00;2.70;91.10
22006;DHT22;11167;46.988;15.470;2022-12-18T03:30:08;2.60;91.10
22006;DHT22;11167;46.988;15.470;2022-12-18T03:32:19;2.60;91.10
22006;DHT22;11167;46.988;15.470;2022-12-18T03:34:25;2.60;91.10
22006;DHT22;11167;46.988;15.470;2022-12-18T03:36:27;2.60;91.20
22006;DHT22;11167;46.988;15.470;2022-12-18T03:38:28;2.60;91.20
22006;DHT22;11167;46.988;15.470;2022-12-18T03:40:39;2.60;91.20
22006;DHT22;11167;46.988;15.470;2022-12-18T03:42:51;2.60;91.20
22006;DHT22;11167;46.988;15.470;2022-12-18T03:47:08;2.60;91.20
22006;DHT22;11167;46.988;15.470;2022-12-18T03:49:13;2.60;91.20
22006;DHT22;11167;46.988;15.470;2022-12-18T03:51:24;2.50;91.20
22006;DHT22;11167;46.988;15.470;2022-12-18T03:53:46;2.50;91.20
22006;DHT22;11167;46.988;15.470;2022-12-18T03:55:48;2.50;91.20
22006;DHT22;11167;46.988;15.470;2022-12-18T03:57:51;2.50;91.20
22006;DHT22;11167;46.988;15.470;2022-12-18T03:59:59;2.50;91.20
22006;DHT22;11167;46.988;15.470;2022-12-18T04:02:01;2.50;91.20
22006;DHT22;11167;46.988;15.470;2022-12-18T04:04:04;2.50;91.20
22006;DHT22;11167;46.988;15.470;2022-12-18T04:06:07;2.50;91.20
22006;DHT22;11167;46.988;15.470;2022-12-18T04:08:09;2.50;91.20
22006;DHT22;11167;46.988;15.470;2022-12-18T04:10:11;2.50;91.20
22006;DHT22;11167;46.988;15.470;2022-12-18T04:12:13;2.50;91.20
22006;DHT22;11167;46.988;15.470;2022-12-18T04:14:15;2.40;91.20
22006;DHT22;11167;46.988;15.470;2022-12-18T04:16:16;2.40;91.20
22006;DHT22;11167;46.988;15.470;2022-12-18T04:18:17;2.40;91.20
22006;DHT22;11167;46.988;15.470;2022-12-18T04:20:18;2.40;91.20
22006;DHT22;11167;46.988;15.470;2022-12-18T04:22:19;2.40;91.20
22006;DHT22;11167;46.988;15.470;2022-12-18T04:24:20;2.40;91.20
22006;DHT22;11167;46.988;15.470;2022-12-18T04:26:22;2.40;91.20
22006;DHT22;11167;46.988;15.470;2022-12-18T04:28:23;2.40;91.20
22006;DHT22;11167;46.988;15.470;2022-12-18T04:30:24;2.40;91.20
22006;DHT22;11167;46.988;15.470;2022-12-18T04:32:25;2.40;91.20
22006;DHT22;11167;46.988;15.470;2022-12-18T04:34:26;2.40;91.20
22006;DHT22;11167;46.988;15.470;2022-12-18T04:36:27;2.40;91.20
22006;DHT22;11167;46.988;15.470;2022-12-18T04:38:29;2.40;91.20
22006;DHT22;11167;46.988;15.470;2022-12-18T04:40:30;2.40;91.20
22006;DHT22;11167;46.988;15.470;2022-12-18T04:42:31;2.40;91.20
22006;DHT22;11167;46.988;15.470;2022-12-18T04:44:38;2.30;91.20
22006;DHT22;11167;46.988;15.470;2022-12-18T04:46:41;2.30;91.20
22006;DHT22;11167;46.988;15.470;2022-12-18T04:48:45;2.30;91.20
22006;DHT22;11167;46.988;15.470;2022-12-18T04:50:46;2.30;91.20
22006;DHT22;11167;46.988;15.470;2022-12-18T04:52:47;2.30;91.40
22006;DHT22;11167;46.988;15.470;2022-12-18T04:54:49;2.30;91.20
22006;DHT22;11167;46.988;15.470;2022-12-18T04:56:50;2.30;91.30
22006;DHT22;11167;46.988;15.470;2022-12-18T04:58:51;2.30;91.20
22006;DHT22;11167;46.988;15.470;2022-12-18T05:00:54;2.20;91.20
22006;DHT22;11167;46.988;15.470;2022-12-18T05:02:55;2.20;91.30
22006;DHT22;11167;46.988;15.470;2022-12-18T05:04:56;2.20;91.20
22006;DHT22;11167;46.988;15.470;2022-12-18T05:06:57;2.20;91.30
22006;DHT22;11167;46.988;15.470;2022-12-18T05:08:59;2.20;91.20
22006;DHT22;11167;46.988;15.470;2022-12-18T05:11:05;2.20;91.30
22006;DHT22;11167;46.988;15.470;2022-12-18T05:13:06;2.20;91.20
22006;DHT22;11167;46.988;15.470;2022-12-18T05:15:08;2.20;91.20
22006;DHT22;11167;46.988;15.470;2022-12-18T05:17:09;2.20;91.20
22006;DHT22;11167;46.988;15.470;2022-12-18T05:19:10;2.20;91.20
22006;DHT22;11167;46.988;15.470;2022-12-18T05:21:12;2.10;91.20
22006;DHT22;11167;46.988;15.470;2022-12-18T05:23:13;2.10;91.20
22006;DHT22;11167;46.988;15.470;2022-12-18T05:25:14;2.10;91.20
22006;DHT22;11167;46.988;15.470;2022-12-18T05:27:15;2.10;91.20
22006;DHT22;11167;46.988;15.470;2022-12-18T05:29:16;2.10;91.20
22006;DHT22;11167;46.988;15.470;2022-12-18T05:31:18;2.10;91.20
22006;DHT22;11167;46.988;15.470;2022-12-18T05:33:20;2.10;91.30
22006;DHT22;11167;46.988;15.470;2022-12-18T05:35:21;2.10;91.30
22006;DHT22;11167;46.988;15.470;2022-12-18T05:37:22;2.10;91.20
22006;DHT22;11167;46.988;15.470;2022-12-18T05:39:23;2.10;91.20
22006;DHT22;11167;46.988;15.470;2022-12-18T05:41:25;2.10;91.20
22006;DHT22;11167;46.988;15.470;2022-12-18T05:43:26;2.10;91.20
22006;DHT22;11167;46.988;15.470;2022-12-18T05:45:27;2.00;91.20
22006;DHT22;11167;46.988;15.470;2022-12-18T05:47:29;2.00;91.20
22006;DHT22;11167;46.988;15.470;2022-12-18T05:49:30;2.00;91.30
22006;DHT22;11167;46.988;15.470;2022-12-18T05:51:31;2.00;91.20
22006;DHT22;11167;46.988;15.470;2022-12-18T05:53:32;2.00;91.20
22006;DHT22;11167;46.988;15.470;2022-12-18T05:55:34;2.00;91.20
22006;DHT22;11167;46.988;15.470;2022-12-18T05:57:36;2.00;91.20
22006;DHT22;11167;46.988;15.470;2022-12-18T05:59:37;2.00;91.20
22006;DHT22;11167;46.988;15.470;2022-12-18T06:01:40;2.00;91.60
22006;DHT22;11167;46.988;15.470;2022-12-18T06:03:41;2.00;91.20
22006;DHT22;11167;46.988;15.470;2022-12-18T06:05:44;2.00;91.30
22006;DHT22;11167;46.988;15.470;2022-12-18T06:07:45;2.00;91.30
22006;DHT22;11167;46.988;15.470;2022-12-18T06:09:47;1.90;91.20
22006;DHT22;11167;46.988;15.470;2022-12-18T06:11:48;1.90;91.20
22006;DHT22;11167;46.988;15.470;2022-12-18T06:13:50;1.90;91.20
22006;DHT22;11167;46.988;15.470;2022-12-18T06:15:52;1.90;91.20
22006;DHT22;11167;46.988;15.470;2022-12-18T06:17:53;1.90;91.20
22006;DHT22;11167;46.988;15.470;2022-12-18T06:19:55;1.90;91.20
22006;DHT22;11167;46.988;15.470;2022-12-18T06:21:56;1.90;91.20
22006;DHT22;11167;46.988;15.470;2022-12-18T06:23:59;1.90;91.20
22006;DHT22;11167;46.988;15.470;2022-12-18T06:26:08;1.80;91.20
22006;DHT22;11167;46.988;15.470;2022-12-18T06:28:10;1.90;91.60
22006;DHT22;11167;46.988;15.470;2022-12-18T06:30:12;1.90;91.20
22006;DHT22;11167;46.988;15.470;2022-12-18T06:32:13;1.90;91.20
22006;DHT22;11167;46.988;15.470;2022-12-18T06:34:15;1.80;91.20
22006;DHT22;11167;46.988;15.470;2022-12-18T06:36:16;1.80;91.40
22006;DHT22;11167;46.988;15.470;2022-12-18T06:38:17;1.80;91.20
22006;DHT22;11167;46.988;15.470;2022-12-18T06:40:19;1.80;91.20
22006;DHT22;11167;46.988;15.470;2022-12-18T06:42:20;1.80;91.20
22006;DHT22;11167;46.988;15.470;2022-12-18T06:44:22;1.80;91.20
22006;DHT22;11167;46.988;15.470;2022-12-18T06:46:23;1.80;91.20
22006;DHT22;11167;46.988;15.470;2022-12-18T06:48:24;1.80;91.30
22006;DHT22;11167;46.988;15.470;2022-12-18T06:50:26;1.80;91.30
22006;DHT22;11167;46.988;15.470;2022-12-18T06:52:27;1.80;91.30
22006;DHT22;11167;46.988;15.470;2022-12-18T06:54:30;1.80;91.30
22006;DHT22;11167;46.988;15.470;2022-12-18T06:56:31;1.80;91.30
22006;DHT22;11167;46.988;15.470;2022-12-18T06:58:32;1.80;90.90
22006;DHT22;11167;46.988;15.470;2022-12-18T07:00:34;1.80;91.30
22006;DHT22;11167;46.988;15.470;2022-12-18T07:02:35;1.70;91.30
22006;DHT22;11167;46.988;15.470;2022-12-18T07:04:36;1.70;91.30
22006;DHT22;11167;46.988;15.470;2022-12-18T07:06:38;1.70;91.30
22006;DHT22;11167;46.988;15.470;2022-12-18T07:08:39;1.70;91.30
22006;DHT22;11167;46.988;15.470;2022-12-18T07:10:42;1.70;91.60
22006;DHT22;11167;46.988;15.470;2022-12-18T07:12:43;1.70;91.30
22006;DHT22;11167;46.988;15.470;2022-12-18T07:14:44;1.70;91.30
22006;DHT22;11167;46.988;15.470;2022-12-18T07:16:45;1.70;91.30
22006;DHT22;11167;46.988;15.470;2022-12-18T07:18:47;1.70;91.30
22006;DHT22;11167;46.988;15.470;2022-12-18T07:20:48;1.70;91.30
22006;DHT22;11167;46.988;15.470;2022-12-18T07:22:49;1.70;91.30
22006;DHT22;11167;46.988;15.470;2022-12-18T07:24:51;1.70;91.30
22006;DHT22;11167;46.988;15.470;2022-12-18T07:26:52;1.70;91.30
22006;DHT22;11167;46.988;15.470;2022-12-18T07:28:57;1.60;91.30
22006;DHT22;11167;46.988;15.470;2022-12-18T07:31:04;1.70;91.30
22006;DHT22;11167;46.988;15.470;2022-12-18T07:33:05;1.70;91.30
22006;DHT22;11167;46.988;15.470;2022-12-18T07:35:06;1.70;91.30
22006;DHT22;11167;46.988;15.470;2022-12-18T07:37:07;1.70;91.30
22006;DHT22;11167;46.988;15.470;2022-12-18T07:39:10;1.60;91.30
22006;DHT22;11167;46.988;15.470;2022-12-18T07:41:13;1.60;91.30
22006;DHT22;11167;46.988;15.470;2022-12-18T07:43:14;1.60;91.30
22006;DHT22;11167;46.988;15.470;2022-12-18T07:45:16;1.60;91.30
22006;DHT22;11167;46.988;15.470;2022-12-18T07:47:17;1.60;91.30
22006;DHT22;11167;46.988;15.470;2022-12-18T07:49:18;1.60;91.30
22006;DHT22;11167;46.988;15.470;2022-12-18T07:51:19;1.60;91.30
22006;DHT22;11167;46.988;15.470;2022-12-18T07:53:20;1.60;91.30
22006;DHT22;11167;46.988;15.470;2022-12-18T07:55:21;1.60;91.30
22006;DHT22;11167;46.988;15.470;2022-12-18T07:57:22;1.60;91.30
22006;DHT22;11167;46.988;15.470;2022-12-18T07:59:24;1.60;91.30
22006;DHT22;11167;46.988;15.470;2022-12-18T08:01:25;1.60;91.30
22006;DHT22;11167;46.988;15.470;2022-12-18T08:03:26;1.60;91.30
22006;DHT22;11167;46.988;15.470;2022-12-18T08:05:27;1.60;91.30
22006;DHT22;11167;46.988;15.470;2022-12-18T08:07:29;1.60;91.20
22006;DHT22;11167;46.988;15.470;2022-12-18T08:09:30;1.50;91.20
22006;DHT22;11167;46.988;15.470;2022-12-18T08:11:31;1.60;91.30
22006;DHT22;11167;46.988;15.470;2022-12-18T08:13:32;1.60;91.20
22006;DHT22;11167;46.988;15.470;2022-12-18T08:15:33;1.60;91.20
22006;DHT22;11167;46.988;15.470;2022-12-18T08:17:34;1.60;91.30
22006;DHT22;11167;46.988;15.470;2022-12-18T08:19:35;1.60;91.30
22006;DHT22;11167;46.988;15.470;2022-12-18T08:21:36;1.60;91.30
22006;DHT22;11167;46.988;15.470;2022-12-18T08:23:38;1.50;91.20
22006;DHT22;11167;46.988;15.470;2022-12-18T08:25:40;1.50;91.20
22006;DHT22;11167;46.988;15.470;2022-12-18T08:27:41;1.50;91.20
22006;DHT22;11167;46.988;15.470;2022-12-18T08:29:42;1.60;91.20
22006;DHT22;11167;46.988;15.470;2022-12-18T08:31:43;1.50;91.20
22006;DHT22;11167;46.988;15.470;2022-12-18T08:33:45;1.50;91.20
22006;DHT22;11167;46.988;15.470;2022-12-18T08:36:06;1.50;91.20
22006;DHT22;11167;46.988;15.470;2022-12-18T08:38:07;1.60;91.20
22006;DHT22;11167;46.988;15.470;2022-12-18T08:40:10;1.50;91.20
22006;DHT22;11167;46.988;15.470;2022-12-18T08:42:12;1.50;91.20
22006;DHT22;11167;46.988;15.470;2022-12-18T08:44:32;1.50;91.20
22006;DHT22;11167;46.988;15.470;2022-12-18T08:46:41;1.50;91.20
22006;DHT22;11167;46.988;15.470;2022-12-18T08:48:42;1.50;91.20
22006;DHT22;11167;46.988;15.470;2022-12-18T08:50:43;1.50;91.20
22006;DHT22;11167;46.988;15.470;2022-12-18T08:52:44;1.50;91.20
22006;DHT22;11167;46.988;15.470;2022-12-18T08:54:46;1.50;91.20
22006;DHT22;11167;46.988;15.470;2022-12-18T08:56:47;1.50;91.20
22006;DHT22;11167;46.988;15.470;2022-12-18T08:58:53;1.50;91.20
22006;DHT22;11167;46.988;15.470;2022-12-18T09:01:02;1.50;91.30
22006;DHT22;11167;46.988;15.470;2022-12-18T09:03:24;1.50;91.30
22006;DHT22;11167;46.988;15.470;2022-12-18T09:05:28;1.50;91.10
22006;DHT22;11167;46.988;15.470;2022-12-18T09:07:29;1.50;91.10
22006;DHT22;11167;46.988;15.470;2022-12-18T09:09:30;1.50;91.50
22006;DHT22;11167;46.988;15.470;2022-12-18T09:11:32;1.50;91.50
22006;DHT22;11167;46.988;15.470;2022-12-18T09:13:33;1.50;91.50
22006;DHT22;11167;46.988;15.470;2022-12-18T09:15:43;1.50;91.10
22006;DHT22;11167;46.988;15.470;2022-12-18T09:17:44;1.40;91.20
22006;DHT22;11167;46.988;15.470;2022-12-18T09:19:45;1.50;91.10
22006;DHT22;11167;46.988;15.470;2022-12-18T09:21:47;1.40;91.10
22006;DHT22;11167;46.988;15.470;2022-12-18T09:23:52;1.50;91.20
22006;DHT22;11167;46.988;15.470;2022-12-18T09:25:58;1.50;91.20
22006;DHT22;11167;46.988;15.470;2022-12-18T09:28:00;1.50;91.20
22006;DHT22;11167;46.988;15.470;2022-12-18T09:30:02;1.50;91.20
22006;DHT22;11167;46.988;15.470;2022-12-18T09:32:04;1.50;91.20
22006;DHT22;11167;46.988;15.470;2022-12-18T09:34:05;1.50;91.20
22006;DHT22;11167;46.988;15.470;2022-12-18T09:36:09;1.50;91.20
22006;DHT22;11167;46.988;15.470;2022-12-18T09:38:17;1.50;91.20
22006;DHT22;11167;46.988;15.470;2022-12-18T09:40:21;1.50;91.20
22006;DHT22;11167;46.988;15.470;2022-12-18T09:42:23;1.50;91.20
22006;DHT22;11167;46.988;15.470;2022-12-18T09:44:36;1.50;91.20
22006;DHT22;11167;46.988;15.470;2022-12-18T09:46:42;1.50;91.20
22006;DHT22;11167;46.988;15.470;2022-12-18T09:48:46;1.50;91.20
22006;DHT22;11167;46.988;15.470;2022-12-18T09:50:48;1.50;91.20
22006;DHT22;11167;46.988;15.470;2022-12-18T09:52:56;1.50;91.20
22006;DHT22;11167;46.988;15.470;2022-12-18T09:57:14;1.50;91.20
22006;DHT22;11167;46.988;15.470;2022-12-18T09:59:25;1.50;91.20
22006;DHT22;11167;46.988;15.470;2022-12-18T10:01:28;1.50;91.20
22006;DHT22;11167;46.988;15.470;2022-12-18T10:03:29;1.50;91.20
22006;DHT22;11167;46.988;15.470;2022-12-18T10:14:36;1.50;91.20
22006;DHT22;11167;46.988;15.470;2022-12-18T10:21:20;1.50;91.20
22006;DHT22;11167;46.988;15.470;2022-12-18T10:26:00;1.50;91.20
22006;DHT22;11167;46.988;15.470;2022-12-18T10:28:13;1.50;91.20
22006;DHT22;11167;46.988;15.470;2022-12-18T10:30:17;1.50;91.20
22006;DHT22;11167;46.988;15.470;2022-12-18T10:32:28;1.50;91.30
22006;DHT22;11167;46.988;15.470;2022-12-18T10:34:30;1.50;91.30
22006;DHT22;11167;46.988;15.470;2022-12-18T10:36:31;1.50;91.30
22006;DHT22;11167;46.988;15.470;2022-12-18T10:38:33;1.60;91.30
22006;DHT22;11167;46.988;15.470;2022-12-18T10:40:58;1.50;91.30
22006;DHT22;11167;46.988;15.470;2022-12-18T10:42:39;1.60;91.30
22006;DHT22;11167;46.988;15.470;2022-12-18T10:44:42;1.60;91.30
22006;DHT22;11167;46.988;15.470;2022-12-18T10:46:49;1.60;91.30
22006;DHT22;11167;46.988;15.470;2022-12-18T10:48:55;1.60;91.30
22006;DHT22;11167;46.988;15.470;2022-12-18T10:50:57;1.60;91.30
22006;DHT22;11167;46.988;15.470;2022-12-18T10:53:01;1.60;91.30
22006;DHT22;11167;46.988;15.470;2022-12-18T10:55:04;1.60;91.70
22006;DHT22;11167;46.988;15.470;2022-12-18T10:57:20;1.60;91.30
22006;DHT22;11167;46.988;15.470;2022-12-18T10:59:19;1.60;91.30
22006;DHT22;11167;46.988;15.470;2022-12-18T11:01:21;1.70;91.30
22006;DHT22;11167;46.988;15.470;2022-12-18T11:03:34;1.60;91.60
22006;DHT22;11167;46.988;15.470;2022-12-18T11:05:37;1.60;91.30
22006;DHT22;11167;46.988;15.470;2022-12-18T11:07:50;1.60;91.30
22006;DHT22;11167;46.988;15.470;2022-12-18T11:10:01;1.70;91.30
22006;DHT22;11167;46.988;15.470;2022-12-18T11:12:17;1.70;91.30
22006;DHT22;11167;46.988;15.470;2022-12-18T11:14:24;1.70;91.30
22006;DHT22;11167;46.988;15.470;2022-12-18T11:16:26;1.70;91.30
22006;DHT22;11167;46.988;15.470;2022-12-18T11:18:35;1.60;91.30
22006;DHT22;11167;46.988;15.470;2022-12-18T11:20:36;1.70;91.30
22006;DHT22;11167;46.988;15.470;2022-12-18T11:22:38;1.70;91.30
22006;DHT22;11167;46.988;15.470;2022-12-18T11:24:41;1.70;91.30
22006;DHT22;11167;46.988;15.470;2022-12-18T11:26:42;1.70;91.30
22006;DHT22;11167;46.988;15.470;2022-12-18T11:28:50;1.70;91.30
22006;DHT22;11167;46.988;15.470;2022-12-18T11:33:21;1.70;91.30
22006;DHT22;11167;46.988;15.470;2022-12-18T11:35:53;1.70;91.30
22006;DHT22;11167;46.988;15.470;2022-12-18T11:37:58;1.70;91.30
22006;DHT22;11167;46.988;15.470;2022-12-18T11:40:17;1.70;91.30
22006;DHT22;11167;46.988;15.470;2022-12-18T11:45:23;1.70;91.40
22006;DHT22;11167;46.988;15.470;2022-12-18T11:46:50;1.70;91.40
22006;DHT22;11167;46.988;15.470;2022-12-18T11:49:01;1.70;91.30
22006;DHT22;11167;46.988;15.470;2022-12-18T11:51:05;1.70;91.30
22006;DHT22;11167;46.988;15.470;2022-12-18T11:53:10;1.70;91.30
22006;DHT22;11167;46.988;15.470;2022-12-18T11:55:14;1.70;91.30
22006;DHT22;11167;46.988;15.470;2022-12-18T11:59:56;1.70;91.30
22006;DHT22;11167;46.988;15.470;2022-12-18T12:02:11;1.70;91.40
22006;DHT22;11167;46.988;15.470;2022-12-18T12:11:41;1.70;91.40
22006;DHT22;11167;46.988;15.470;2022-12-18T12:18:27;1.70;91.40
22006;DHT22;11167;46.988;15.470;2022-12-18T12:20:49;1.70;91.40
22006;DHT22;11167;46.988;15.470;2022-12-18T12:23:06;1.70;91.40
22006;DHT22;11167;46.988;15.470;2022-12-18T12:25:20;1.70;91.40
22006;DHT22;11167;46.988;15.470;2022-12-18T12:39:14;1.80;91.40
22006;DHT22;11167;46.988;15.470;2022-12-18T12:41:19;1.70;91.80
22006;DHT22;11167;46.988;15.470;2022-12-18T12:46:12;1.80;91.40
22006;DHT22;11167;46.988;15.470;2022-12-18T12:48:15;1.80;91.40
22006;DHT22;11167;46.988;15.470;2022-12-18T12:50:17;1.70;91.40
22006;DHT22;11167;46.988;15.470;2022-12-18T12:52:30;1.80;91.40
22006;DHT22;11167;46.988;15.470;2022-12-18T12:54:28;1.80;91.40
22006;DHT22;11167;46.988;15.470;2022-12-18T12:56:43;1.80;91.40
22006;DHT22;11167;46.988;15.470;2022-12-18T13:01:29;1.80;91.40
22006;DHT22;11167;46.988;15.470;2022-12-18T13:06:00;1.80;91.40
22006;DHT22;11167;46.988;15.470;2022-12-18T13:12:23;1.80;91.50
22006;DHT22;11167;46.988;15.470;2022-12-18T13:14:43;1.80;91.50
22006;DHT22;11167;46.988;15.470;2022-12-18T13:16:45;1.80;91.50
22006;DHT22;11167;46.988;15.470;2022-12-18T13:18:54;1.80;91.40
22006;DHT22;11167;46.988;15.470;2022-12-18T13:25:35;1.80;91.50
22006;DHT22;11167;46.988;15.470;2022-12-18T13:29:48;1.80;91.50
22006;DHT22;11167;46.988;15.470;2022-12-18T13:34:28;1.90;91.50
22006;DHT22;11167;46.988;15.470;2022-12-18T13:36:33;1.80;91.50
22006;DHT22;11167;46.988;15.470;2022-12-18T13:38:36;1.90;91.50
22006;DHT22;11167;46.988;15.470;2022-12-18T13:42:51;1.80;91.50
22006;DHT22;11167;46.988;15.470;2022-12-18T13:45:43;1.80;91.50
22006;DHT22;11167;46.988;15.470;2022-12-18T13:47:45;1.80;91.50
22006;DHT22;11167;46.988;15.470;2022-12-18T13:49:49;1.80;91.40
22006;DHT22;11167;46.988;15.470;2022-12-18T13:52:01;1.80;91.40
22006;DHT22;11167;46.988;15.470;2022-12-18T13:54:37;1.90;91.50
22006;DHT22;11167;46.988;15.470;2022-12-18T13:56:51;1.90;91.50
22006;DHT22;11167;46.988;15.470;2022-12-18T13:59:20;1.90;91.50
22006;DHT22;11167;46.988;15.470;2022-12-18T14:01:23;1.90;91.50
22006;DHT22;11167;46.988;15.470;2022-12-18T14:03:27;1.90;91.50
22006;DHT22;11167;46.988;15.470;2022-12-18T14:05:35;1.90;91.50
22006;DHT22;11167;46.988;15.470;2022-12-18T14:07:48;1.90;91.40
22006;DHT22;11167;46.988;15.470;2022-12-18T14:09:58;1.90;91.50
22006;DHT22;11167;46.988;15.470;2022-12-18T14:12:02;1.90;91.40
22006;DHT22;11167;46.988;15.470;2022-12-18T14:14:25;1.90;91.40
22006;DHT22;11167;46.988;15.470;2022-12-18T14:16:27;1.90;91.40
22006;DHT22;11167;46.988;15.470;2022-12-18T14:20:49;1.90;91.50
22006;DHT22;11167;46.988;15.470;2022-12-18T14:22:51;1.90;91.60
22006;DHT22;11167;46.988;15.470;2022-12-18T14:27:30;1.90;91.40
22006;DHT22;11167;46.988;15.470;2022-12-18T14:29:30;1.90;91.40
22006;DHT22;11167;46.988;15.470;2022-12-18T14:31:34;1.90;91.40
22006;DHT22;11167;46.988;15.470;2022-12-18T14:33:36;1.90;91.40
22006;DHT22;11167;46.988;15.470;2022-12-18T14:36:03;1.90;91.50
22006;DHT22;11167;46.988;15.470;2022-12-18T14:40:19;1.90;91.50
22006;DHT22;11167;46.988;15.470;2022-12-18T14:42:27;1.90;91.50
22006;DHT22;11167;46.988;15.470;2022-12-18T14:44:38;1.90;91.50